createdAt,value
2019-01-24T00:07:43.296Z,-5.66
2019-01-24T00:17:45.360Z,-5.63
2019-01-24T00:27:47.460Z,-5.69
2019-01-24T00:37:49.549Z,-5.75
2019-01-24T00:47:51.666Z,-5.76
2019-01-24T00:57:53.790Z,-5.75
2019-01-24T01:07:55.855Z,-5.71
2019-01-24T01:17:57.921Z,-5.70
2019-01-24T01:28:00.151Z,-5.74
2019-01-24T01:38:02.520Z,-5.74
2019-01-24T01:48:04.820Z,-5.72
2019-01-24T01:58:06.965Z,-5.80
2019-01-24T02:08:09.006Z,-5.80
2019-01-24T02:18:11.064Z,-5.81
2019-01-24T02:28:13.152Z,-5.90
2019-01-24T02:38:15.287Z,-5.87
2019-01-24T02:48:17.379Z,-5.83
2019-01-24T02:58:19.444Z,-5.85
2019-01-24T03:08:21.694Z,-5.90
2019-01-24T03:18:24.981Z,-5.88
2019-01-24T03:28:27.048Z,-5.89
2019-01-24T03:38:29.160Z,-5.83
2019-01-24T03:48:31.234Z,-5.85
2019-01-24T03:58:33.314Z,-5.90
2019-01-24T04:08:35.427Z,-6.07
2019-01-24T04:18:37.514Z,-6.10
2019-01-24T04:28:39.572Z,-6.13
2019-01-24T04:38:41.647Z,-6.10
2019-01-24T04:48:43.754Z,-6.08
2019-01-24T04:58:45.806Z,-5.99
2019-01-24T05:08:47.355Z,-6.04
2019-01-24T05:18:48.841Z,-6.07
2019-01-24T05:28:50.340Z,-6.11
2019-01-24T05:38:51.795Z,-6.07
2019-01-24T05:48:54.245Z,-6.11
2019-01-24T05:58:55.772Z,-6.05
2019-01-24T06:08:57.210Z,-6.02
2019-01-24T06:18:58.895Z,-6.07
2019-01-24T06:29:02.846Z,-6.09
2019-01-24T06:39:06.716Z,-6.14
2019-01-24T06:49:08.192Z,-6.27
2019-01-24T06:59:09.674Z,-6.34
2019-01-24T07:09:11.256Z,-6.37
2019-01-24T07:19:12.683Z,-6.34
2019-01-24T07:29:14.128Z,-6.30
2019-01-24T07:39:15.606Z,-6.28
2019-01-24T07:49:17.025Z,-6.24
2019-01-24T07:59:18.522Z,-6.21
2019-01-24T08:09:23.103Z,-6.19
2019-01-24T08:19:24.549Z,-6.19
2019-01-24T08:29:25.988Z,-6.12
2019-01-24T08:39:28.613Z,-6.01
2019-01-24T08:49:30.055Z,-5.95
2019-01-24T08:59:31.576Z,-5.93
2019-01-24T09:09:33.072Z,-5.89
2019-01-24T09:19:34.576Z,-5.86
2019-01-24T09:29:36.056Z,-5.80
2019-01-24T09:39:37.488Z,-5.66
2019-01-24T09:49:38.988Z,-5.59
2019-01-24T09:59:40.616Z,-5.61
2019-01-24T10:09:42.097Z,-5.69
2019-01-24T10:19:43.531Z,-5.59
2019-01-24T10:29:44.979Z,-5.66
2019-01-24T10:39:46.454Z,-5.77
2019-01-24T10:49:47.886Z,-5.76
2019-01-24T10:59:49.370Z,-5.65
2019-01-24T11:09:50.853Z,-5.53
2019-01-24T11:19:52.298Z,-5.58
2019-01-24T11:29:53.740Z,-5.55
2019-01-24T11:39:55.242Z,-5.50
2019-01-24T11:49:56.689Z,-5.49
2019-01-24T11:59:58.169Z,-5.37
2019-01-24T12:09:59.657Z,-5.39
2019-01-24T12:20:02.076Z,-5.47
2019-01-24T12:30:28.645Z,-5.57
2019-01-24T12:40:30.078Z,-5.50
2019-01-24T12:50:31.767Z,-5.51
2019-01-24T13:00:35.737Z,-5.53
2019-01-24T13:10:38.296Z,-5.60
2019-01-24T13:20:39.951Z,-5.55
2019-01-24T13:30:41.409Z,-5.59
2019-01-24T13:40:42.856Z,-5.67
2019-01-24T13:50:44.326Z,-5.69
2019-01-24T14:00:46.043Z,-5.66
2019-01-24T14:10:47.652Z,-5.65
2019-01-24T14:20:49.194Z,-5.66
2019-01-24T14:30:51.892Z,-5.65
2019-01-24T14:40:53.328Z,-5.71
2019-01-24T14:50:54.787Z,-5.75
2019-01-24T15:01:00.842Z,-5.83
2019-01-24T15:11:02.288Z,-5.91
2019-01-24T15:21:04.146Z,-5.97
2019-01-24T15:31:05.934Z,-5.98
2019-01-24T15:41:07.608Z,-6.00
2019-01-24T15:51:09.249Z,-6.02
2019-01-24T16:01:10.878Z,-6.00
2019-01-24T16:11:12.309Z,-5.95
2019-01-24T16:21:13.759Z,-5.93
2019-01-24T16:31:15.264Z,-5.91
2019-01-24T16:41:16.712Z,-5.91
2019-01-24T16:51:18.154Z,-5.90
2019-01-24T17:01:19.857Z,-5.94
2019-01-24T17:11:21.290Z,-5.92
2019-01-24T17:21:22.826Z,-5.90
2019-01-24T17:31:24.317Z,-5.88
2019-01-24T17:41:25.789Z,-5.93
2019-01-24T17:51:27.234Z,-5.94
2019-01-24T18:01:28.717Z,-6.01
2019-01-24T18:11:30.204Z,-6.10
2019-01-24T18:21:31.753Z,-6.19
2019-01-24T18:31:33.288Z,-6.23
2019-01-24T18:41:35.074Z,-6.18
2019-01-24T18:51:36.754Z,-6.14
2019-01-24T19:01:38.368Z,-6.14
2019-01-24T19:11:39.983Z,-6.13
2019-01-24T19:21:43.114Z,-6.13
2019-01-24T19:31:44.809Z,-6.16
2019-01-24T19:41:46.337Z,-6.18
2019-01-24T19:51:47.773Z,-6.29
2019-01-24T20:01:49.315Z,-6.27
2019-01-24T20:11:50.865Z,-6.26
2019-01-24T20:21:52.314Z,-6.17
2019-01-24T20:31:53.898Z,-6.17
2019-01-24T20:42:10.803Z,-6.07
2019-01-24T20:52:17.177Z,-6.06
2019-01-24T21:02:18.646Z,-6.06
2019-01-24T21:12:20.110Z,-6.10
2019-01-24T21:22:21.718Z,-6.16
2019-01-24T21:32:23.147Z,-6.20
2019-01-24T21:42:24.590Z,-6.31
2019-01-24T21:52:26.166Z,-6.38
2019-01-24T22:02:27.692Z,-6.48
2019-01-24T22:12:29.125Z,-6.46
2019-01-24T22:22:30.602Z,-6.45
2019-01-24T22:32:32.038Z,-6.37
2019-01-24T22:42:33.497Z,-6.37
2019-01-24T22:52:34.995Z,-6.37
2019-01-24T23:02:36.646Z,-6.36
2019-01-24T23:12:38.128Z,-6.37
2019-01-24T23:22:39.615Z,-6.31
2019-01-24T23:32:44.270Z,-6.32
2019-01-24T23:42:45.806Z,-6.33
2019-01-24T23:52:47.269Z,-6.32
